sensor_id;sensor_type;location;lat;lon;timestamp;P1;durP1;ratioP1;P2;durP2;ratioP2
11510;SDS011;5812;48.864;9.190;2022-09-09T00:00:22;2.67;;;2.67;;
11510;SDS011;5812;48.864;9.190;2022-09-09T00:07:52;2.33;;;2.33;;
11510;SDS011;5812;48.864;9.190;2022-09-09T00:10:28;2.87;;;2.87;;
11510;SDS011;5812;48.864;9.190;2022-09-09T00:13:11;2.03;;;2.03;;
11510;SDS011;5812;48.864;9.190;2022-09-09T00:15:55;2.87;;;2.87;;
11510;SDS011;5812;48.864;9.190;2022-09-09T00:21:04;2.07;;;2.07;;
11510;SDS011;5812;48.864;9.190;2022-09-09T00:23:36;2.40;;;2.40;;
11510;SDS011;5812;48.864;9.190;2022-09-09T00:28:44;2.57;;;2.57;;
11510;SDS011;5812;48.864;9.190;2022-09-09T00:31:18;2.40;;;2.40;;
11510;SDS011;5812;48.864;9.190;2022-09-09T00:33:50;1.80;;;1.80;;
11510;SDS011;5812;48.864;9.190;2022-09-09T00:36:18;1.73;;;1.73;;
11510;SDS011;5812;48.864;9.190;2022-09-09T00:38:52;2.23;;;2.23;;
11510;SDS011;5812;48.864;9.190;2022-09-09T00:44:29;1.30;;;1.30;;
11510;SDS011;5812;48.864;9.190;2022-09-09T00:47:14;1.40;;;1.40;;
11510;SDS011;5812;48.864;9.190;2022-09-09T00:52:52;1.50;;;1.50;;
11510;SDS011;5812;48.864;9.190;2022-09-09T00:55:39;1.87;;;1.87;;
11510;SDS011;5812;48.864;9.190;2022-09-09T00:58:08;1.50;;;1.50;;
11510;SDS011;5812;48.864;9.190;2022-09-09T01:00:44;1.47;;;1.47;;
11510;SDS011;5812;48.864;9.190;2022-09-09T01:08:56;1.50;;;1.50;;
11510;SDS011;5812;48.864;9.190;2022-09-09T01:11:26;1.60;;;1.60;;
11510;SDS011;5812;48.864;9.190;2022-09-09T01:17:21;1.20;;;1.20;;
11510;SDS011;5812;48.864;9.190;2022-09-09T01:20:10;1.20;;;1.20;;
11510;SDS011;5812;48.864;9.190;2022-09-09T01:26:20;1.63;;;1.63;;
11510;SDS011;5812;48.864;9.190;2022-09-09T01:28:48;1.30;;;1.30;;
11510;SDS011;5812;48.864;9.190;2022-09-09T01:31:19;1.60;;;1.60;;
11510;SDS011;5812;48.864;9.190;2022-09-09T01:33:47;1.50;;;1.50;;
11510;SDS011;5812;48.864;9.190;2022-09-09T01:36:19;1.30;;;1.30;;
11510;SDS011;5812;48.864;9.190;2022-09-09T01:38:49;1.50;;;1.50;;
11510;SDS011;5812;48.864;9.190;2022-09-09T01:41:15;1.33;;;1.33;;
11510;SDS011;5812;48.864;9.190;2022-09-09T01:43:40;1.60;;;1.60;;
11510;SDS011;5812;48.864;9.190;2022-09-09T01:46:06;1.50;;;1.50;;
11510;SDS011;5812;48.864;9.190;2022-09-09T01:48:32;1.63;;;1.63;;
11510;SDS011;5812;48.864;9.190;2022-09-09T01:50:58;1.63;;;1.63;;
11510;SDS011;5812;48.864;9.190;2022-09-09T01:53:24;1.23;;;1.23;;
11510;SDS011;5812;48.864;9.190;2022-09-09T01:55:56;1.70;;;1.70;;
11510;SDS011;5812;48.864;9.190;2022-09-09T02:04:01;1.47;;;1.47;;
11510;SDS011;5812;48.864;9.190;2022-09-09T02:06:37;1.60;;;1.60;;
11510;SDS011;5812;48.864;9.190;2022-09-09T02:09:05;1.20;;;1.20;;
11510;SDS011;5812;48.864;9.190;2022-09-09T02:11:35;1.73;;;1.73;;
11510;SDS011;5812;48.864;9.190;2022-09-09T02:14:23;1.27;;;1.27;;
11510;SDS011;5812;48.864;9.190;2022-09-09T02:17:03;1.53;;;1.53;;
11510;SDS011;5812;48.864;9.190;2022-09-09T02:19:49;1.77;;;1.77;;
11510;SDS011;5812;48.864;9.190;2022-09-09T02:22:20;1.33;;;1.33;;
11510;SDS011;5812;48.864;9.190;2022-09-09T02:24:49;1.63;;;1.63;;
11510;SDS011;5812;48.864;9.190;2022-09-09T02:27:18;1.70;;;1.70;;
11510;SDS011;5812;48.864;9.190;2022-09-09T02:29:46;1.50;;;1.50;;
11510;SDS011;5812;48.864;9.190;2022-09-09T02:32:17;1.30;;;1.30;;
11510;SDS011;5812;48.864;9.190;2022-09-09T02:35:08;1.50;;;1.50;;
11510;SDS011;5812;48.864;9.190;2022-09-09T02:37:37;1.37;;;1.37;;
11510;SDS011;5812;48.864;9.190;2022-09-09T02:40:05;1.10;;;1.10;;
11510;SDS011;5812;48.864;9.190;2022-09-09T02:42:40;1.17;;;1.17;;
11510;SDS011;5812;48.864;9.190;2022-09-09T02:45:07;1.23;;;1.23;;
11510;SDS011;5812;48.864;9.190;2022-09-09T02:47:35;1.13;;;1.13;;
11510;SDS011;5812;48.864;9.190;2022-09-09T02:50:17;1.20;;;1.20;;
11510;SDS011;5812;48.864;9.190;2022-09-09T02:52:58;0.90;;;0.90;;
11510;SDS011;5812;48.864;9.190;2022-09-09T02:58:25;0.97;;;0.97;;
11510;SDS011;5812;48.864;9.190;2022-09-09T03:00:51;0.90;;;0.90;;
11510;SDS011;5812;48.864;9.190;2022-09-09T03:03:17;1.10;;;1.10;;
11510;SDS011;5812;48.864;9.190;2022-09-09T03:05:44;0.87;;;0.87;;
11510;SDS011;5812;48.864;9.190;2022-09-09T03:08:11;1.20;;;1.20;;
11510;SDS011;5812;48.864;9.190;2022-09-09T03:10:38;1.43;;;1.43;;
11510;SDS011;5812;48.864;9.190;2022-09-09T03:13:04;0.90;;;0.90;;
11510;SDS011;5812;48.864;9.190;2022-09-09T03:15:30;1.37;;;1.37;;
11510;SDS011;5812;48.864;9.190;2022-09-09T03:17:59;1.70;;;1.70;;
11510;SDS011;5812;48.864;9.190;2022-09-09T03:20:26;1.33;;;1.33;;
11510;SDS011;5812;48.864;9.190;2022-09-09T03:22:53;1.10;;;1.10;;
11510;SDS011;5812;48.864;9.190;2022-09-09T03:25:20;1.17;;;1.17;;
11510;SDS011;5812;48.864;9.190;2022-09-09T03:27:48;1.60;;;1.60;;
11510;SDS011;5812;48.864;9.190;2022-09-09T03:30:14;1.50;;;1.50;;
11510;SDS011;5812;48.864;9.190;2022-09-09T03:32:40;1.80;;;1.80;;
11510;SDS011;5812;48.864;9.190;2022-09-09T03:35:06;2.07;;;2.07;;
11510;SDS011;5812;48.864;9.190;2022-09-09T03:37:32;1.90;;;1.90;;
11510;SDS011;5812;48.864;9.190;2022-09-09T03:39:58;1.70;;;1.70;;
11510;SDS011;5812;48.864;9.190;2022-09-09T03:42:24;2.03;;;2.03;;
11510;SDS011;5812;48.864;9.190;2022-09-09T03:44:50;1.60;;;1.60;;
11510;SDS011;5812;48.864;9.190;2022-09-09T03:47:17;1.90;;;1.90;;
11510;SDS011;5812;48.864;9.190;2022-09-09T03:49:43;1.50;;;1.50;;
11510;SDS011;5812;48.864;9.190;2022-09-09T03:52:09;1.60;;;1.60;;
11510;SDS011;5812;48.864;9.190;2022-09-09T03:54:34;1.70;;;1.70;;
11510;SDS011;5812;48.864;9.190;2022-09-09T03:57:00;1.40;;;1.40;;
11510;SDS011;5812;48.864;9.190;2022-09-09T03:59:26;1.37;;;1.37;;
11510;SDS011;5812;48.864;9.190;2022-09-09T04:01:52;1.70;;;1.70;;
11510;SDS011;5812;48.864;9.190;2022-09-09T04:04:18;1.40;;;1.40;;
11510;SDS011;5812;48.864;9.190;2022-09-09T04:06:45;1.70;;;1.70;;
11510;SDS011;5812;48.864;9.190;2022-09-09T04:09:13;1.83;;;1.83;;
11510;SDS011;5812;48.864;9.190;2022-09-09T04:11:39;1.73;;;1.73;;
11510;SDS011;5812;48.864;9.190;2022-09-09T04:14:04;1.60;;;1.60;;
11510;SDS011;5812;48.864;9.190;2022-09-09T04:16:31;1.90;;;1.90;;
11510;SDS011;5812;48.864;9.190;2022-09-09T04:19:03;2.50;;;2.50;;
11510;SDS011;5812;48.864;9.190;2022-09-09T04:21:32;1.90;;;1.90;;
11510;SDS011;5812;48.864;9.190;2022-09-09T04:23:58;1.80;;;1.80;;
11510;SDS011;5812;48.864;9.190;2022-09-09T04:26:24;1.83;;;1.83;;
11510;SDS011;5812;48.864;9.190;2022-09-09T04:28:49;2.00;;;2.00;;
11510;SDS011;5812;48.864;9.190;2022-09-09T04:31:16;2.50;;;2.50;;
11510;SDS011;5812;48.864;9.190;2022-09-09T04:33:45;2.17;;;2.17;;
11510;SDS011;5812;48.864;9.190;2022-09-09T04:36:11;2.10;;;2.10;;
11510;SDS011;5812;48.864;9.190;2022-09-09T04:38:38;1.90;;;1.90;;
11510;SDS011;5812;48.864;9.190;2022-09-09T04:41:03;2.00;;;2.00;;
11510;SDS011;5812;48.864;9.190;2022-09-09T04:43:29;1.73;;;1.73;;
11510;SDS011;5812;48.864;9.190;2022-09-09T04:45:56;1.73;;;1.73;;
11510;SDS011;5812;48.864;9.190;2022-09-09T04:48:21;1.77;;;1.77;;
11510;SDS011;5812;48.864;9.190;2022-09-09T04:53:26;1.60;;;1.60;;
11510;SDS011;5812;48.864;9.190;2022-09-09T04:56:14;1.80;;;1.80;;
11510;SDS011;5812;48.864;9.190;2022-09-09T04:58:41;1.70;;;1.70;;
11510;SDS011;5812;48.864;9.190;2022-09-09T05:03:38;1.50;;;1.50;;
11510;SDS011;5812;48.864;9.190;2022-09-09T05:06:07;1.73;;;1.73;;
11510;SDS011;5812;48.864;9.190;2022-09-09T05:08:36;1.33;;;1.33;;
11510;SDS011;5812;48.864;9.190;2022-09-09T05:11:02;1.50;;;1.50;;
11510;SDS011;5812;48.864;9.190;2022-09-09T05:13:28;1.43;;;1.43;;
11510;SDS011;5812;48.864;9.190;2022-09-09T05:15:56;1.70;;;1.70;;
11510;SDS011;5812;48.864;9.190;2022-09-09T05:18:21;1.67;;;1.67;;
11510;SDS011;5812;48.864;9.190;2022-09-09T05:20:47;2.00;;;2.00;;
11510;SDS011;5812;48.864;9.190;2022-09-09T05:23:14;1.20;;;1.20;;
11510;SDS011;5812;48.864;9.190;2022-09-09T05:25:39;1.37;;;1.37;;
11510;SDS011;5812;48.864;9.190;2022-09-09T05:28:05;2.67;;;2.67;;
11510;SDS011;5812;48.864;9.190;2022-09-09T05:30:32;1.87;;;1.87;;
11510;SDS011;5812;48.864;9.190;2022-09-09T05:32:58;1.90;;;1.90;;
11510;SDS011;5812;48.864;9.190;2022-09-09T05:35:24;1.47;;;1.47;;
11510;SDS011;5812;48.864;9.190;2022-09-09T05:37:50;1.40;;;1.40;;
11510;SDS011;5812;48.864;9.190;2022-09-09T05:40:16;1.60;;;1.60;;
11510;SDS011;5812;48.864;9.190;2022-09-09T05:42:41;1.30;;;1.30;;
11510;SDS011;5812;48.864;9.190;2022-09-09T05:45:07;1.43;;;1.43;;
11510;SDS011;5812;48.864;9.190;2022-09-09T05:47:34;1.60;;;1.60;;
11510;SDS011;5812;48.864;9.190;2022-09-09T05:50:00;1.20;;;1.20;;
11510;SDS011;5812;48.864;9.190;2022-09-09T05:52:26;1.17;;;1.17;;
11510;SDS011;5812;48.864;9.190;2022-09-09T05:54:52;1.20;;;1.20;;
11510;SDS011;5812;48.864;9.190;2022-09-09T05:57:20;1.40;;;1.40;;
11510;SDS011;5812;48.864;9.190;2022-09-09T05:59:45;1.10;;;1.10;;
11510;SDS011;5812;48.864;9.190;2022-09-09T06:02:11;1.50;;;1.50;;
11510;SDS011;5812;48.864;9.190;2022-09-09T06:04:38;1.60;;;1.60;;
11510;SDS011;5812;48.864;9.190;2022-09-09T06:07:04;1.10;;;1.10;;
11510;SDS011;5812;48.864;9.190;2022-09-09T06:09:30;1.37;;;1.37;;
11510;SDS011;5812;48.864;9.190;2022-09-09T06:11:56;1.30;;;1.30;;
11510;SDS011;5812;48.864;9.190;2022-09-09T06:14:23;1.63;;;1.63;;
11510;SDS011;5812;48.864;9.190;2022-09-09T06:16:50;1.50;;;1.50;;
11510;SDS011;5812;48.864;9.190;2022-09-09T06:19:16;1.40;;;1.40;;
11510;SDS011;5812;48.864;9.190;2022-09-09T06:21:41;1.77;;;1.77;;
11510;SDS011;5812;48.864;9.190;2022-09-09T06:24:09;1.67;;;1.67;;
11510;SDS011;5812;48.864;9.190;2022-09-09T06:26:38;1.10;;;1.10;;
11510;SDS011;5812;48.864;9.190;2022-09-09T06:29:07;1.30;;;1.30;;
11510;SDS011;5812;48.864;9.190;2022-09-09T06:31:33;1.93;;;1.93;;
11510;SDS011;5812;48.864;9.190;2022-09-09T06:34:01;1.47;;;1.47;;
11510;SDS011;5812;48.864;9.190;2022-09-09T06:36:31;1.83;;;1.83;;
11510;SDS011;5812;48.864;9.190;2022-09-09T06:38:58;1.33;;;1.33;;
11510;SDS011;5812;48.864;9.190;2022-09-09T06:41:25;1.30;;;1.30;;
11510;SDS011;5812;48.864;9.190;2022-09-09T06:43:55;1.47;;;1.47;;
11510;SDS011;5812;48.864;9.190;2022-09-09T06:46:22;1.40;;;1.40;;
11510;SDS011;5812;48.864;9.190;2022-09-09T06:48:56;1.20;;;1.20;;
11510;SDS011;5812;48.864;9.190;2022-09-09T06:51:24;1.98;;;1.98;;
11510;SDS011;5812;48.864;9.190;2022-09-09T06:53:55;1.30;;;1.30;;
11510;SDS011;5812;48.864;9.190;2022-09-09T06:56:26;1.45;;;1.45;;
11510;SDS011;5812;48.864;9.190;2022-09-09T06:58:53;1.17;;;1.17;;
11510;SDS011;5812;48.864;9.190;2022-09-09T07:01:21;1.42;;;1.42;;
11510;SDS011;5812;48.864;9.190;2022-09-09T07:03:50;1.58;;;1.58;;
11510;SDS011;5812;48.864;9.190;2022-09-09T07:06:18;1.27;;;1.27;;
11510;SDS011;5812;48.864;9.190;2022-09-09T07:08:53;1.30;;;1.30;;
11510;SDS011;5812;48.864;9.190;2022-09-09T07:11:25;1.33;;;1.33;;
11510;SDS011;5812;48.864;9.190;2022-09-09T07:13:53;1.10;;;1.10;;
11510;SDS011;5812;48.864;9.190;2022-09-09T07:16:20;1.38;;;1.38;;
11510;SDS011;5812;48.864;9.190;2022-09-09T07:18:50;1.00;;;1.00;;
11510;SDS011;5812;48.864;9.190;2022-09-09T07:21:17;1.30;;;1.30;;
11510;SDS011;5812;48.864;9.190;2022-09-09T07:23:45;1.00;;;1.00;;
11510;SDS011;5812;48.864;9.190;2022-09-09T07:26:12;0.80;;;0.80;;
11510;SDS011;5812;48.864;9.190;2022-09-09T07:28:39;0.93;;;0.93;;
11510;SDS011;5812;48.864;9.190;2022-09-09T07:31:06;0.80;;;0.80;;
11510;SDS011;5812;48.864;9.190;2022-09-09T07:33:33;1.02;;;1.02;;
11510;SDS011;5812;48.864;9.190;2022-09-09T07:38:30;0.80;;;0.80;;
11510;SDS011;5812;48.864;9.190;2022-09-09T07:41:03;1.00;;;1.00;;
11510;SDS011;5812;48.864;9.190;2022-09-09T07:43:30;1.33;;;1.33;;
11510;SDS011;5812;48.864;9.190;2022-09-09T07:45:59;1.17;;;1.17;;
11510;SDS011;5812;48.864;9.190;2022-09-09T07:48:28;1.30;;;1.30;;
11510;SDS011;5812;48.864;9.190;2022-09-09T07:51:02;0.80;;;0.80;;
11510;SDS011;5812;48.864;9.190;2022-09-09T07:53:36;0.90;;;0.90;;
11510;SDS011;5812;48.864;9.190;2022-09-09T07:56:07;1.00;;;1.00;;
11510;SDS011;5812;48.864;9.190;2022-09-09T07:58:35;1.08;;;1.08;;
11510;SDS011;5812;48.864;9.190;2022-09-09T08:01:45;1.10;;;1.10;;
11510;SDS011;5812;48.864;9.190;2022-09-09T08:03:56;1.10;;;1.10;;
11510;SDS011;5812;48.864;9.190;2022-09-09T08:06:31;0.77;;;0.77;;
11510;SDS011;5812;48.864;9.190;2022-09-09T08:08:59;1.38;;;1.38;;
11510;SDS011;5812;48.864;9.190;2022-09-09T08:11:26;0.60;;;0.60;;
11510;SDS011;5812;48.864;9.190;2022-09-09T08:13:53;0.95;;;0.95;;
11510;SDS011;5812;48.864;9.190;2022-09-09T08:16:23;0.60;;;0.60;;
11510;SDS011;5812;48.864;9.190;2022-09-09T08:18:53;0.85;;;0.85;;
11510;SDS011;5812;48.864;9.190;2022-09-09T08:21:27;0.70;;;0.70;;
11510;SDS011;5812;48.864;9.190;2022-09-09T08:23:54;0.98;;;0.98;;
11510;SDS011;5812;48.864;9.190;2022-09-09T08:26:21;0.93;;;0.93;;
11510;SDS011;5812;48.864;9.190;2022-09-09T08:28:49;0.82;;;0.82;;
11510;SDS011;5812;48.864;9.190;2022-09-09T08:31:21;1.08;;;1.08;;
11510;SDS011;5812;48.864;9.190;2022-09-09T08:33:49;1.20;;;1.20;;
11510;SDS011;5812;48.864;9.190;2022-09-09T08:36:19;0.90;;;0.90;;
11510;SDS011;5812;48.864;9.190;2022-09-09T08:38:50;0.65;;;0.65;;
11510;SDS011;5812;48.864;9.190;2022-09-09T08:44:35;1.58;;;1.58;;
11510;SDS011;5812;48.864;9.190;2022-09-09T08:52:36;1.10;;;1.10;;
11510;SDS011;5812;48.864;9.190;2022-09-09T08:57:47;1.25;;;1.25;;
11510;SDS011;5812;48.864;9.190;2022-09-09T09:00:16;0.70;;;0.70;;
11510;SDS011;5812;48.864;9.190;2022-09-09T09:02:46;0.90;;;0.90;;
11510;SDS011;5812;48.864;9.190;2022-09-09T09:13:20;1.00;;;1.00;;
11510;SDS011;5812;48.864;9.190;2022-09-09T09:16:00;0.90;;;0.90;;
11510;SDS011;5812;48.864;9.190;2022-09-09T09:18:39;1.05;;;1.05;;
11510;SDS011;5812;48.864;9.190;2022-09-09T09:21:10;0.80;;;0.80;;
11510;SDS011;5812;48.864;9.190;2022-09-09T09:23:42;0.88;;;0.88;;
11510;SDS011;5812;48.864;9.190;2022-09-09T09:26:15;0.88;;;0.88;;
11510;SDS011;5812;48.864;9.190;2022-09-09T09:28:42;0.70;;;0.70;;
11510;SDS011;5812;48.864;9.190;2022-09-09T09:31:11;0.90;;;0.90;;
11510;SDS011;5812;48.864;9.190;2022-09-09T09:33:49;1.25;;;1.25;;
11510;SDS011;5812;48.864;9.190;2022-09-09T09:36:18;1.00;;;1.00;;
11510;SDS011;5812;48.864;9.190;2022-09-09T09:38:52;1.10;;;1.10;;
11510;SDS011;5812;48.864;9.190;2022-09-09T09:41:34;1.38;;;1.38;;
11510;SDS011;5812;48.864;9.190;2022-09-09T09:44:04;0.70;;;0.70;;
11510;SDS011;5812;48.864;9.190;2022-09-09T09:46:31;0.70;;;0.70;;
11510;SDS011;5812;48.864;9.190;2022-09-09T09:49:04;1.05;;;1.05;;
11510;SDS011;5812;48.864;9.190;2022-09-09T09:51:34;0.98;;;0.98;;
11510;SDS011;5812;48.864;9.190;2022-09-09T09:56:39;1.02;;;1.02;;
11510;SDS011;5812;48.864;9.190;2022-09-09T09:59:05;0.80;;;0.80;;
11510;SDS011;5812;48.864;9.190;2022-09-09T10:01:45;0.65;;;0.65;;
11510;SDS011;5812;48.864;9.190;2022-09-09T10:04:18;0.60;;;0.60;;
11510;SDS011;5812;48.864;9.190;2022-09-09T10:06:45;0.75;;;0.75;;
11510;SDS011;5812;48.864;9.190;2022-09-09T10:14:45;0.93;;;0.93;;
11510;SDS011;5812;48.864;9.190;2022-09-09T10:20:14;0.63;;;0.63;;
11510;SDS011;5812;48.864;9.190;2022-09-09T10:22:50;0.80;;;0.80;;
11510;SDS011;5812;48.864;9.190;2022-09-09T10:25:20;0.77;;;0.77;;
11510;SDS011;5812;48.864;9.190;2022-09-09T10:33:49;0.60;;;0.60;;
11510;SDS011;5812;48.864;9.190;2022-09-09T10:36:25;0.40;;;0.40;;
11510;SDS011;5812;48.864;9.190;2022-09-09T10:44:44;0.70;;;0.70;;
11510;SDS011;5812;48.864;9.190;2022-09-09T10:47:32;0.90;;;0.90;;
11510;SDS011;5812;48.864;9.190;2022-09-09T10:53:22;0.82;;;0.82;;
11510;SDS011;5812;48.864;9.190;2022-09-09T10:55:59;1.02;;;1.02;;
11510;SDS011;5812;48.864;9.190;2022-09-09T11:04:03;0.82;;;0.82;;
11510;SDS011;5812;48.864;9.190;2022-09-09T11:06:39;0.95;;;0.95;;
11510;SDS011;5812;48.864;9.190;2022-09-09T11:09:13;0.68;;;0.68;;
11510;SDS011;5812;48.864;9.190;2022-09-09T11:11:48;1.05;;;1.05;;
11510;SDS011;5812;48.864;9.190;2022-09-09T11:14:39;1.08;;;1.08;;
11510;SDS011;5812;48.864;9.190;2022-09-09T11:17:40;1.48;;;1.48;;
11510;SDS011;5812;48.864;9.190;2022-09-09T11:20:14;0.98;;;0.98;;
11510;SDS011;5812;48.864;9.190;2022-09-09T11:25:47;1.88;;;1.88;;
11510;SDS011;5812;48.864;9.190;2022-09-09T11:28:21;1.23;;;1.23;;
11510;SDS011;5812;48.864;9.190;2022-09-09T11:31:16;1.00;;;1.00;;
11510;SDS011;5812;48.864;9.190;2022-09-09T11:42:15;0.87;;;0.87;;
11510;SDS011;5812;48.864;9.190;2022-09-09T11:44:45;1.02;;;1.02;;
11510;SDS011;5812;48.864;9.190;2022-09-09T11:47:27;1.10;;;1.10;;
11510;SDS011;5812;48.864;9.190;2022-09-09T11:50:40;0.73;;;0.73;;
11510;SDS011;5812;48.864;9.190;2022-09-09T11:52:44;0.90;;;0.90;;
11510;SDS011;5812;48.864;9.190;2022-09-09T11:58:02;0.57;;;0.57;;
11510;SDS011;5812;48.864;9.190;2022-09-09T12:00:34;0.73;;;0.73;;
11510;SDS011;5812;48.864;9.190;2022-09-09T12:03:08;0.50;;;0.50;;
11510;SDS011;5812;48.864;9.190;2022-09-09T12:09:12;0.40;;;0.40;;
11510;SDS011;5812;48.864;9.190;2022-09-09T12:17:30;0.43;;;0.43;;
11510;SDS011;5812;48.864;9.190;2022-09-09T12:22:45;0.55;;;0.55;;
11510;SDS011;5812;48.864;9.190;2022-09-09T12:34:13;0.40;;;0.40;;
11510;SDS011;5812;48.864;9.190;2022-09-09T12:36:42;0.30;;;0.30;;
11510;SDS011;5812;48.864;9.190;2022-09-09T12:39:19;0.50;;;0.50;;
11510;SDS011;5812;48.864;9.190;2022-09-09T12:42:04;0.40;;;0.40;;
11510;SDS011;5812;48.864;9.190;2022-09-09T12:44:29;0.55;;;0.55;;
11510;SDS011;5812;48.864;9.190;2022-09-09T12:46:58;0.80;;;0.80;;
11510;SDS011;5812;48.864;9.190;2022-09-09T12:49:45;0.50;;;0.50;;
11510;SDS011;5812;48.864;9.190;2022-09-09T12:52:17;0.50;;;0.50;;
11510;SDS011;5812;48.864;9.190;2022-09-09T12:55:20;0.30;;;0.30;;
11510;SDS011;5812;48.864;9.190;2022-09-09T12:57:49;0.50;;;0.50;;
11510;SDS011;5812;48.864;9.190;2022-09-09T13:00:17;0.60;;;0.60;;
11510;SDS011;5812;48.864;9.190;2022-09-09T13:02:55;0.57;;;0.57;;
11510;SDS011;5812;48.864;9.190;2022-09-09T13:05:26;0.50;;;0.50;;
11510;SDS011;5812;48.864;9.190;2022-09-09T13:08:03;0.50;;;0.50;;
11510;SDS011;5812;48.864;9.190;2022-09-09T13:10:31;0.60;;;0.60;;
11510;SDS011;5812;48.864;9.190;2022-09-09T13:13:03;0.50;;;0.50;;
11510;SDS011;5812;48.864;9.190;2022-09-09T13:15:36;0.73;;;0.73;;
11510;SDS011;5812;48.864;9.190;2022-09-09T13:18:03;0.50;;;0.50;;
11510;SDS011;5812;48.864;9.190;2022-09-09T13:20:35;0.63;;;0.63;;
11510;SDS011;5812;48.864;9.190;2022-09-09T13:23:02;0.60;;;0.60;;
11510;SDS011;5812;48.864;9.190;2022-09-09T13:25:28;0.30;;;0.30;;
11510;SDS011;5812;48.864;9.190;2022-09-09T13:30:31;0.63;;;0.63;;
11510;SDS011;5812;48.864;9.190;2022-09-09T13:35:52;0.75;;;0.75;;
11510;SDS011;5812;48.864;9.190;2022-09-09T13:38:20;0.50;;;0.50;;
11510;SDS011;5812;48.864;9.190;2022-09-09T13:40:59;0.65;;;0.65;;
11510;SDS011;5812;48.864;9.190;2022-09-09T13:43:30;0.70;;;0.70;;
11510;SDS011;5812;48.864;9.190;2022-09-09T13:46:04;0.80;;;0.80;;
11510;SDS011;5812;48.864;9.190;2022-09-09T13:48:54;0.90;;;0.90;;
11510;SDS011;5812;48.864;9.190;2022-09-09T13:51:34;0.30;;;0.30;;
11510;SDS011;5812;48.864;9.190;2022-09-09T13:54:26;0.50;;;0.50;;
11510;SDS011;5812;48.864;9.190;2022-09-09T13:56:52;0.60;;;0.60;;
11510;SDS011;5812;48.864;9.190;2022-09-09T13:59:19;0.52;;;0.52;;
11510;SDS011;5812;48.864;9.190;2022-09-09T14:01:46;0.60;;;0.60;;
11510;SDS011;5812;48.864;9.190;2022-09-09T14:04:13;0.65;;;0.65;;
11510;SDS011;5812;48.864;9.190;2022-09-09T14:06:40;0.75;;;0.75;;
11510;SDS011;5812;48.864;9.190;2022-09-09T14:09:07;0.47;;;0.47;;
11510;SDS011;5812;48.864;9.190;2022-09-09T14:11:36;0.55;;;0.55;;
11510;SDS011;5812;48.864;9.190;2022-09-09T14:14:02;0.50;;;0.50;;
11510;SDS011;5812;48.864;9.190;2022-09-09T14:16:27;0.60;;;0.60;;
11510;SDS011;5812;48.864;9.190;2022-09-09T14:18:54;0.65;;;0.65;;
11510;SDS011;5812;48.864;9.190;2022-09-09T14:21:24;0.57;;;0.57;;
11510;SDS011;5812;48.864;9.190;2022-09-09T14:23:50;0.43;;;0.43;;
11510;SDS011;5812;48.864;9.190;2022-09-09T14:26:17;0.73;;;0.73;;
11510;SDS011;5812;48.864;9.190;2022-09-09T14:28:44;0.43;;;0.43;;
11510;SDS011;5812;48.864;9.190;2022-09-09T14:31:10;0.55;;;0.55;;
11510;SDS011;5812;48.864;9.190;2022-09-09T14:33:38;0.57;;;0.57;;
11510;SDS011;5812;48.864;9.190;2022-09-09T14:36:04;0.70;;;0.70;;
11510;SDS011;5812;48.864;9.190;2022-09-09T14:38:31;0.80;;;0.80;;
11510;SDS011;5812;48.864;9.190;2022-09-09T14:40:59;0.60;;;0.60;;
11510;SDS011;5812;48.864;9.190;2022-09-09T14:43:26;0.70;;;0.70;;
11510;SDS011;5812;48.864;9.190;2022-09-09T14:45:52;0.55;;;0.55;;
11510;SDS011;5812;48.864;9.190;2022-09-09T14:48:18;0.60;;;0.60;;
11510;SDS011;5812;48.864;9.190;2022-09-09T14:50:44;0.65;;;0.65;;
11510;SDS011;5812;48.864;9.190;2022-09-09T14:53:09;0.57;;;0.57;;
11510;SDS011;5812;48.864;9.190;2022-09-09T14:55:35;0.50;;;0.50;;
11510;SDS011;5812;48.864;9.190;2022-09-09T14:58:01;0.60;;;0.60;;
11510;SDS011;5812;48.864;9.190;2022-09-09T15:00:28;0.40;;;0.40;;
11510;SDS011;5812;48.864;9.190;2022-09-09T15:02:54;0.40;;;0.40;;
11510;SDS011;5812;48.864;9.190;2022-09-09T15:05:21;0.63;;;0.63;;
11510;SDS011;5812;48.864;9.190;2022-09-09T15:07:47;0.50;;;0.50;;
11510;SDS011;5812;48.864;9.190;2022-09-09T15:10:13;0.40;;;0.40;;
11510;SDS011;5812;48.864;9.190;2022-09-09T15:12:39;0.52;;;0.52;;
11510;SDS011;5812;48.864;9.190;2022-09-09T15:15:06;0.50;;;0.50;;
11510;SDS011;5812;48.864;9.190;2022-09-09T15:17:33;0.70;;;0.70;;
11510;SDS011;5812;48.864;9.190;2022-09-09T15:19:59;0.60;;;0.60;;
11510;SDS011;5812;48.864;9.190;2022-09-09T15:22:24;0.60;;;0.60;;
11510;SDS011;5812;48.864;9.190;2022-09-09T15:24:50;0.40;;;0.40;;
11510;SDS011;5812;48.864;9.190;2022-09-09T15:27:16;0.77;;;0.77;;
11510;SDS011;5812;48.864;9.190;2022-09-09T15:29:42;0.57;;;0.57;;
11510;SDS011;5812;48.864;9.190;2022-09-09T15:32:09;0.50;;;0.50;;
11510;SDS011;5812;48.864;9.190;2022-09-09T15:34:35;0.60;;;0.60;;
11510;SDS011;5812;48.864;9.190;2022-09-09T15:37:00;0.40;;;0.40;;
11510;SDS011;5812;48.864;9.190;2022-09-09T15:39:26;0.47;;;0.47;;
11510;SDS011;5812;48.864;9.190;2022-09-09T15:41:51;0.50;;;0.50;;
11510;SDS011;5812;48.864;9.190;2022-09-09T15:44:18;0.80;;;0.80;;
11510;SDS011;5812;48.864;9.190;2022-09-09T15:46:50;0.75;;;0.75;;
11510;SDS011;5812;48.864;9.190;2022-09-09T15:49:25;0.50;;;0.50;;
11510;SDS011;5812;48.864;9.190;2022-09-09T15:52:00;0.85;;;0.85;;
11510;SDS011;5812;48.864;9.190;2022-09-09T15:54:31;0.93;;;0.93;;
11510;SDS011;5812;48.864;9.190;2022-09-09T15:56:59;0.75;;;0.75;;
11510;SDS011;5812;48.864;9.190;2022-09-09T15:59:28;0.50;;;0.50;;
11510;SDS011;5812;48.864;9.190;2022-09-09T16:01:54;0.80;;;0.80;;
11510;SDS011;5812;48.864;9.190;2022-09-09T16:04:20;0.60;;;0.60;;
11510;SDS011;5812;48.864;9.190;2022-09-09T16:06:51;0.70;;;0.70;;
11510;SDS011;5812;48.864;9.190;2022-09-09T16:09:18;0.60;;;0.60;;
11510;SDS011;5812;48.864;9.190;2022-09-09T16:11:44;0.60;;;0.60;;
11510;SDS011;5812;48.864;9.190;2022-09-09T16:14:11;0.70;;;0.70;;
11510;SDS011;5812;48.864;9.190;2022-09-09T16:16:37;0.60;;;0.60;;
11510;SDS011;5812;48.864;9.190;2022-09-09T16:19:04;0.50;;;0.50;;
11510;SDS011;5812;48.864;9.190;2022-09-09T16:21:33;0.60;;;0.60;;
11510;SDS011;5812;48.864;9.190;2022-09-09T16:24:01;0.82;;;0.82;;
11510;SDS011;5812;48.864;9.190;2022-09-09T16:26:29;0.80;;;0.80;;
11510;SDS011;5812;48.864;9.190;2022-09-09T16:28:56;0.77;;;0.77;;
11510;SDS011;5812;48.864;9.190;2022-09-09T16:31:24;0.38;;;0.38;;
11510;SDS011;5812;48.864;9.190;2022-09-09T16:33:50;0.25;;;0.25;;
11510;SDS011;5812;48.864;9.190;2022-09-09T16:36:17;0.35;;;0.35;;
11510;SDS011;5812;48.864;9.190;2022-09-09T16:38:45;0.83;;;0.83;;
11510;SDS011;5812;48.864;9.190;2022-09-09T16:41:11;0.70;;;0.70;;
11510;SDS011;5812;48.864;9.190;2022-09-09T16:43:39;0.30;;;0.30;;
11510;SDS011;5812;48.864;9.190;2022-09-09T16:46:14;0.57;;;0.57;;
11510;SDS011;5812;48.864;9.190;2022-09-09T16:48:42;0.20;;;0.20;;
11510;SDS011;5812;48.864;9.190;2022-09-09T16:51:11;0.30;;;0.30;;
11510;SDS011;5812;48.864;9.190;2022-09-09T16:53:45;0.47;;;0.47;;
11510;SDS011;5812;48.864;9.190;2022-09-09T16:56:13;0.63;;;0.63;;
11510;SDS011;5812;48.864;9.190;2022-09-09T16:58:44;0.60;;;0.60;;
11510;SDS011;5812;48.864;9.190;2022-09-09T17:01:15;0.80;;;0.80;;
11510;SDS011;5812;48.864;9.190;2022-09-09T17:03:40;0.50;;;0.50;;
11510;SDS011;5812;48.864;9.190;2022-09-09T17:06:13;0.40;;;0.40;;
11510;SDS011;5812;48.864;9.190;2022-09-09T17:08:40;0.60;;;0.60;;
11510;SDS011;5812;48.864;9.190;2022-09-09T17:11:13;0.53;;;0.53;;
11510;SDS011;5812;48.864;9.190;2022-09-09T17:13:43;0.30;;;0.30;;
11510;SDS011;5812;48.864;9.190;2022-09-09T17:16:10;0.40;;;0.40;;
11510;SDS011;5812;48.864;9.190;2022-09-09T17:18:37;0.40;;;0.40;;
11510;SDS011;5812;48.864;9.190;2022-09-09T17:21:07;0.60;;;0.60;;
11510;SDS011;5812;48.864;9.190;2022-09-09T17:23:35;0.50;;;0.50;;
11510;SDS011;5812;48.864;9.190;2022-09-09T17:26:11;0.27;;;0.27;;
11510;SDS011;5812;48.864;9.190;2022-09-09T17:28:39;0.30;;;0.30;;
11510;SDS011;5812;48.864;9.190;2022-09-09T17:31:06;0.40;;;0.40;;
11510;SDS011;5812;48.864;9.190;2022-09-09T17:33:33;0.57;;;0.57;;